Time;durP1;ratioP1;P1;durP2;ratioP2;P2;SDS_P1;SDS_P2;PMS_P1;PMS_P2;Temp;Humidity;BMP_temperature;BMP_pressure;BME280_temperature;BME280_humidity;BME280_pressure;Samples;Min_cycle;Max_cycle;Signal;HPM_P1;HPM_P2
2022/07/21 00:01:23;;;;;;;;;6.00;4.00;;;;;23.85;57.50;101705.03;4951339;28;46160;-62
2022/07/21 00:03:49;;;;;;;;;3.75;3.00;;;;;23.85;57.49;101701.50;4958482;28;45422;-61
2022/07/21 00:06:14;;;;;;;;;4.00;3.25;;;;;23.83;57.96;101701.66;4960542;28;45487;-61
2022/07/21 00:08:40;;;;;;;;;4.50;3.00;;;;;23.82;57.69;101697.28;4960735;28;45301;-61
2022/07/21 00:11:06;;;;;;;;;3.50;3.50;;;;;23.79;57.30;101703.00;4947679;28;45404;-63
2022/07/21 00:13:31;;;;;;;;;3.00;3.00;;;;;23.79;57.28;101697.59;4960772;28;45397;-63
2022/07/21 00:15:57;;;;;;;;;3.50;3.00;;;;;23.78;57.65;101697.72;4941900;28;45397;-63
2022/07/21 00:18:24;;;;;;;;;2.75;2.25;;;;;23.78;57.31;101701.31;4941847;28;45493;-63
2022/07/21 00:20:49;;;;;;;;;4.25;4.25;;;;;23.78;57.50;101690.53;4961440;28;45452;-63
2022/07/21 00:23:16;;;;;;;;;5.00;3.75;;;;;23.79;57.81;101691.38;4941564;28;45426;-63
2022/07/21 00:25:41;;;;;;;;;3.75;3.00;;;;;23.77;57.33;101696.91;4942280;28;45329;-65
2022/07/21 00:28:07;;;;;;;;;3.00;3.00;;;;;23.76;57.77;101695.22;4941857;28;45318;-62
2022/07/21 00:30:33;;;;;;;;;5.00;5.00;;;;;23.75;57.67;101692.69;4941681;28;45444;-63
2022/07/21 00:32:59;;;;;;;;;5.00;3.50;;;;;23.75;57.41;101701.59;4941437;28;45318;-62
2022/07/21 00:35:24;;;;;;;;;3.50;3.50;;;;;23.73;58.01;101697.38;4942142;28;45381;-61
2022/07/21 00:37:50;;;;;;;;;3.00;3.00;;;;;23.71;57.47;101700.22;4941946;28;45196;-61
2022/07/21 00:40:15;;;;;;;;;4.00;3.50;;;;;23.70;57.51;101694.97;4943601;28;45320;-62
2022/07/21 00:42:43;;;;;;;;;6.00;6.00;;;;;23.70;57.58;101703.03;4959569;28;45431;-62
2022/07/21 00:45:09;;;;;;;;;3.50;3.50;;;;;23.70;58.16;101697.66;4956229;28;45374;-60
2022/07/21 00:47:36;;;;;;;;;2.50;2.50;;;;;23.72;58.04;101701.06;4944845;28;45333;-63
2022/07/21 00:50:08;;;;;;;;;3.00;3.00;;;;;23.70;58.23;101701.22;4945320;28;45491;-62
2022/07/21 00:52:33;;;;;;;;;5.50;4.50;;;;;23.67;58.04;101702.34;4944809;28;45398;-62
2022/07/21 00:54:59;;;;;;;;;4.50;4.25;;;;;23.63;58.30;101694.75;4945154;28;45346;-63
2022/07/21 00:57:25;;;;;;;;;6.25;4.00;;;;;23.61;58.35;101692.19;4957652;28;45335;-64
2022/07/21 00:59:51;;;;;;;;;5.75;3.75;;;;;23.57;58.18;101684.56;4956678;28;46004;-63
2022/07/21 01:02:16;;;;;;;;;0.50;0.50;;;;;23.56;58.21;101683.72;4961770;28;45445;-63
2022/07/21 01:04:42;;;;;;;;;3.50;3.00;;;;;23.58;57.84;101683.56;4964469;28;45499;-66
2022/07/21 01:07:07;;;;;;;;;3.00;3.00;;;;;23.56;58.12;101691.78;4950133;28;45267;-62
2022/07/21 01:09:35;;;;;;;;;4.25;3.50;;;;;23.55;58.57;101690.09;4945020;28;45299;-63
2022/07/21 01:12:02;;;;;;;;;3.50;1.75;;;;;23.52;57.96;101697.63;4953569;28;45405;-62
2022/07/21 01:14:28;;;;;;;;;5.25;4.50;;;;;23.48;58.21;101694.41;4956417;28;45511;-62
2022/07/21 01:16:53;;;;;;;;;4.25;3.00;;;;;23.43;58.65;101687.78;4944149;28;45368;-60
2022/07/21 01:19:19;;;;;;;;;4.25;4.00;;;;;23.42;58.26;101694.16;4948435;28;46775;-64
2022/07/21 01:21:48;;;;;;;;;5.00;5.00;;;;;23.42;59.04;101696.84;4944877;28;45425;-62
2022/07/21 01:24:13;;;;;;;;;7.75;6.00;;;;;23.40;58.40;101697.84;4952985;28;45412;-62
2022/07/21 01:26:50;;;;;;;;;5.25;4.75;;;;;23.39;58.83;101698.00;4963972;28;45190;-62
2022/07/21 01:29:17;;;;;;;;;3.25;3.25;;;;;23.39;58.74;101693.47;4963819;28;46570;-63
2022/07/21 01:31:44;;;;;;;;;5.00;4.50;;;;;23.38;58.52;101685.53;4953106;28;45451;-62
2022/07/21 01:34:11;;;;;;;;;5.75;4.25;;;;;23.35;58.85;101678.63;4963496;28;45455;-63
2022/07/21 01:36:37;;;;;;;;;4.75;4.00;;;;;23.36;58.97;101680.31;4946997;28;45313;-63
2022/07/21 01:41:48;;;;;;;;;4.50;4.00;;;;;23.31;59.03;101671.03;4944337;28;45448;-63
2022/07/21 01:44:14;;;;;;;;;4.00;3.25;;;;;23.31;59.21;101669.19;4944051;28;45575;-63
2022/07/21 01:46:45;;;;;;;;;5.25;3.75;;;;;23.29;59.48;101678.38;4944160;28;45511;-61
2022/07/21 01:49:13;;;;;;;;;5.00;4.25;;;;;23.26;59.32;101674.16;4943828;28;45365;-59
2022/07/21 01:51:38;;;;;;;;;3.00;3.00;;;;;23.24;58.98;101673.47;4944019;28;45403;-63
2022/07/21 01:54:06;;;;;;;;;3.75;3.75;;;;;23.23;59.22;101674.47;4944052;28;45322;-63
2022/07/21 01:56:33;;;;;;;;;4.00;4.00;;;;;23.23;59.53;101690.59;4944709;28;45485;-63
2022/07/21 01:58:58;;;;;;;;;4.00;3.00;;;;;23.23;59.57;101690.59;4946005;28;45325;-63
2022/07/21 02:01:26;;;;;;;;;6.00;5.75;;;;;23.24;59.52;101694.97;4952746;28;45341;-63
2022/07/21 02:03:53;;;;;;;;;4.00;3.00;;;;;23.21;59.31;101684.50;4960473;28;45317;-62
2022/07/21 02:06:20;;;;;;;;;2.75;2.75;;;;;23.19;59.57;101688.34;4944236;28;45240;-64
2022/07/21 02:08:45;;;;;;;;;5.00;4.00;;;;;23.17;59.38;101693.88;4969434;28;46402;-62
2022/07/21 02:11:12;;;;;;;;;3.75;3.75;;;;;23.12;59.43;101685.41;4950358;28;46411;-64
2022/07/21 02:13:38;;;;;;;;;6.75;5.00;;;;;23.10;59.71;101690.94;4962402;28;45570;-64
2022/07/21 02:16:04;;;;;;;;;6.00;5.00;;;;;23.08;59.58;101690.25;4962591;28;46483;-63
2022/07/21 02:18:30;;;;;;;;;5.00;5.00;;;;;23.07;59.82;101693.09;4961753;28;45931;-63
2022/07/21 02:20:55;;;;;;;;;4.00;4.00;;;;;23.07;59.89;101701.16;4962579;28;45452;-63
2022/07/21 02:23:22;;;;;;;;;4.50;4.50;;;;;23.06;59.90;101699.44;4958796;28;45427;-63
2022/07/21 02:25:48;;;;;;;;;7.75;5.25;;;;;23.05;60.02;101705.81;4955021;28;45225;-63
2022/07/21 02:28:14;;;;;;;;;6.75;4.00;;;;;23.05;60.03;101697.75;4960823;28;46139;-54
2022/07/21 02:30:40;;;;;;;;;7.00;5.25;;;;;23.03;59.89;101695.22;4963164;28;45725;-63
2022/07/21 02:33:06;;;;;;;;;6.00;5.00;;;;;23.03;59.92;101697.91;4963286;28;45341;-63
2022/07/21 02:35:32;;;;;;;;;7.00;7.00;;;;;23.00;60.33;101697.38;4963274;28;45400;-63
2022/07/21 02:37:58;;;;;;;;;7.00;6.50;;;;;23.00;60.20;101694.69;4963069;28;45349;-63
2022/07/21 02:40:24;;;;;;;;;6.00;6.00;;;;;22.97;60.24;101693.13;4954715;28;45318;-63
2022/07/21 02:42:49;;;;;;;;;6.75;6.75;;;;;22.93;60.09;101707.84;4943745;28;45389;-63
2022/07/21 02:45:15;;;;;;;;;6.75;6.75;;;;;22.91;60.39;101698.22;4943621;28;45494;-63
2022/07/21 02:48:00;;;;;;;;;6.25;6.25;;;;;22.88;60.40;101702.06;4943511;28;45659;-63
2022/07/21 02:50:29;;;;;;;;;6.75;5.50;;;;;22.86;60.12;101706.75;4943739;28;45425;-63
2022/07/21 02:52:56;;;;;;;;;6.25;6.00;;;;;22.83;60.71;101707.88;4945174;28;45252;-63
2022/07/21 02:55:21;;;;;;;;;7.50;7.00;;;;;22.80;60.59;101708.13;4962805;28;45155;-63
2022/07/21 02:57:47;;;;;;;;;7.75;6.50;;;;;22.78;60.79;101709.28;4962565;28;45358;-63
2022/07/21 03:00:13;;;;;;;;;9.00;8.00;;;;;22.74;60.65;101714.09;4962093;28;45324;-63
2022/07/21 03:02:38;;;;;;;;;7.25;6.50;;;;;22.75;60.61;101710.44;4961758;28;45361;-63
2022/07/21 03:05:04;;;;;;;;;7.50;7.00;;;;;22.75;60.57;101715.81;4961633;28;45495;-63
2022/07/21 03:07:30;;;;;;;;;7.50;7.50;;;;;22.76;60.81;101709.44;4959866;28;46429;-63
2022/07/21 03:09:55;;;;;;;;;8.25;8.25;;;;;22.76;60.92;101717.50;4953476;28;45321;-63
2022/07/21 03:12:21;;;;;;;;;7.25;7.25;;;;;22.77;60.83;101710.28;4951330;28;45400;-64
2022/07/21 03:14:46;;;;;;;;;8.00;8.00;;;;;22.75;60.56;101715.81;4962153;28;45298;-63
2022/07/21 03:17:12;;;;;;;;;7.25;6.00;;;;;22.74;60.86;101724.84;4962020;28;45597;-63
2022/07/21 03:19:37;;;;;;;;;9.50;9.50;;;;;22.67;60.76;101723.75;4962667;28;45171;-63
2022/07/21 03:22:03;;;;;;;;;8.00;7.75;;;;;22.67;61.10;101720.19;4962700;28;45412;-63
2022/07/21 03:24:29;;;;;;;;;8.00;6.25;;;;;22.65;60.79;101714.97;4962676;28;45562;-63
2022/07/21 03:26:55;;;;;;;;;9.50;7.50;;;;;22.63;60.84;101727.72;4962213;28;45514;-63
2022/07/21 03:29:21;;;;;;;;;10.00;8.00;;;;;22.60;60.56;101725.31;4962492;28;45234;-63
2022/07/21 03:31:47;;;;;;;;;9.75;8.25;;;;;22.57;60.82;101726.44;4962062;28;45357;-63
2022/07/21 03:34:12;;;;;;;;;12.25;10.00;;;;;22.55;60.78;101741.00;4962521;28;45568;-63
2022/07/21 03:36:38;;;;;;;;;12.25;10.75;;;;;22.47;60.98;101735.53;4962142;28;46177;-63
2022/07/21 03:39:03;;;;;;;;;15.75;12.00;;;;;22.42;60.87;101745.81;4962365;28;45432;-63
2022/07/21 03:41:29;;;;;;;;;10.00;10.00;;;;;22.36;60.79;101736.53;4962321;28;45497;-63
2022/07/21 03:43:54;;;;;;;;;9.00;9.00;;;;;22.35;60.99;101736.66;4962452;28;45605;-63
2022/07/21 03:46:20;;;;;;;;;12.00;11.00;;;;;22.33;60.68;101738.63;4960209;28;46869;-63
2022/07/21 03:48:45;;;;;;;;;10.25;10.00;;;;;22.34;60.79;101743.00;4962213;28;45318;-63
2022/07/21 03:51:11;;;;;;;;;12.25;11.75;;;;;22.31;61.08;101741.47;4962074;28;45338;-63
2022/07/21 03:53:36;;;;;;;;;14.00;11.25;;;;;22.31;61.04;101748.69;4962412;28;45466;-62
2022/07/21 03:56:02;;;;;;;;;13.25;12.00;;;;;22.29;60.97;101738.94;4961884;28;45880;-63
2022/07/21 03:58:28;;;;;;;;;12.00;11.00;;;;;22.29;61.09;101738.09;4962668;28;45416;-63
2022/07/21 04:00:53;;;;;;;;;15.00;12.00;;;;;22.25;61.23;101740.19;4945984;28;45301;-63
2022/07/21 04:03:19;;;;;;;;;13.50;12.75;;;;;22.24;61.20;101734.97;4943008;28;45171;-63
2022/07/21 04:05:44;;;;;;;;;13.00;12.00;;;;;22.22;61.12;101742.34;4948009;28;45224;-63
2022/07/21 04:08:12;;;;;;;;;13.00;11.00;;;;;22.20;61.23;101747.00;4962188;28;45256;-64
2022/07/21 04:10:38;;;;;;;;;18.50;14.00;;;;;22.17;61.17;101744.59;4962034;28;45466;-63
2022/07/21 04:13:07;;;;;;;;;12.25;11.50;;;;;22.15;61.54;101746.56;4962201;28;45314;-62
2022/07/21 04:15:33;;;;;;;;;17.75;14.75;;;;;22.13;61.20;101748.56;4965872;28;45409;-63
2022/07/21 04:17:59;;;;;;;;;14.00;12.50;;;;;22.15;61.72;101749.25;4964874;28;45246;-63
2022/07/21 04:20:24;;;;;;;;;13.00;12.25;;;;;22.14;61.65;101753.78;4965301;28;45230;-62
2022/07/21 04:22:51;;;;;;;;;14.00;14.00;;;;;22.14;61.47;101750.25;4965489;28;45302;-63
2022/07/21 04:25:18;;;;;;;;;17.00;15.75;;;;;22.14;61.52;101750.25;4965231;28;45403;-64
2022/07/21 04:27:44;;;;;;;;;15.75;14.25;;;;;22.12;61.70;101750.41;4965036;28;45312;-63
2022/07/21 04:30:12;;;;;;;;;19.00;16.25;;;;;22.12;61.67;101755.75;4965213;28;45249;-63
2022/07/21 04:32:38;;;;;;;;;20.00;17.25;;;;;22.12;61.79;101760.25;4963761;28;45633;-63
2022/07/21 04:35:04;;;;;;;;;18.50;15.50;;;;;22.12;61.82;101760.25;4964027;28;45471;-63
2022/07/21 04:37:30;;;;;;;;;16.25;13.50;;;;;22.10;61.94;101762.22;4964938;28;45234;-63
2022/07/21 04:39:55;;;;;;;;;17.50;17.00;;;;;22.09;61.92;101768.59;4965443;28;45163;-63
2022/07/21 04:42:21;;;;;;;;;15.75;15.00;;;;;22.07;61.99;101755.28;4965938;28;45238;-62
2022/07/21 04:44:47;;;;;;;;;18.00;17.00;;;;;22.09;61.73;101763.22;4965571;28;45955;-65
2022/07/21 04:47:12;;;;;;;;;19.25;16.25;;;;;22.08;62.22;101762.38;4964470;28;45308;-64
2022/07/21 04:49:38;;;;;;;;;19.00;15.25;;;;;22.09;61.93;101765.91;4965183;28;45369;-63
2022/07/21 04:52:03;;;;;;;;;19.75;15.00;;;;;22.09;62.37;101760.53;4964787;28;45346;-63
2022/07/21 04:54:29;;;;;;;;;19.50;17.00;;;;;22.09;62.04;101763.22;4964811;28;46305;-63
2022/07/21 04:56:55;;;;;;;;;19.00;15.75;;;;;22.09;61.78;101768.59;4964576;28;45305;-63
2022/07/21 04:59:21;;;;;;;;;19.75;19.00;;;;;22.10;61.72;101775.66;4964847;28;45272;-63
2022/07/21 05:01:46;;;;;;;;;16.50;15.25;;;;;22.12;62.13;101776.34;4951198;28;45322;-64
2022/07/21 05:04:11;;;;;;;;;16.00;16.00;;;;;22.11;62.18;101771.97;4943963;28;45286;-63
2022/07/21 05:06:37;;;;;;;;;17.75;17.25;;;;;22.18;62.11;101773.13;4957734;28;45269;-63
2022/07/21 05:09:03;;;;;;;;;16.75;15.75;;;;;22.19;61.90;101767.59;4964702;28;45314;-63
2022/07/21 05:11:29;;;;;;;;;17.00;14.50;;;;;22.22;62.19;101779.91;4964428;28;45415;-63
2022/07/21 05:13:54;;;;;;;;;15.75;14.00;;;;;22.23;62.07;101779.75;4964363;28;46081;-63
2022/07/21 05:16:20;;;;;;;;;19.75;15.25;;;;;22.22;62.18;101779.91;4963730;28;45416;-63
2022/07/21 05:18:46;;;;;;;;;20.75;17.00;;;;;22.21;62.10;101775.53;4964265;28;45285;-63
2022/07/21 05:21:11;;;;;;;;;23.25;22.25;;;;;22.22;62.16;101778.06;4964434;28;45239;-63
2022/07/21 05:23:37;;;;;;;;;20.75;20.75;;;;;22.20;62.14;101782.75;4964066;28;45367;-63
2022/07/21 05:26:03;;;;;;;;;23.25;19.00;;;;;22.20;62.18;101784.56;4963299;28;45444;-63
2022/07/21 05:28:28;;;;;;;;;18.25;18.25;;;;;22.19;62.09;101783.69;4964342;28;45289;-63
2022/07/21 05:30:54;;;;;;;;;25.00;20.75;;;;;22.19;62.25;101782.84;4963717;28;45274;-64
2022/07/21 05:33:20;;;;;;;;;21.50;16.00;;;;;22.19;61.91;101781.03;4945068;28;45373;-63
2022/07/21 05:35:45;;;;;;;;;21.00;20.25;;;;;22.19;61.93;101785.53;4949527;28;45294;-64
2022/07/21 05:38:11;;;;;;;;;26.25;24.50;;;;;22.21;62.16;101783.59;4962697;28;45398;-63
2022/07/21 05:40:36;;;;;;;;;25.50;22.00;;;;;22.21;62.17;101792.47;4963871;28;45549;-63
2022/07/21 05:43:02;;;;;;;;;23.50;21.50;;;;;22.20;62.25;101787.25;4945110;28;45928;-63
2022/07/21 05:45:27;;;;;;;;;15.50;15.50;;;;;22.21;61.99;101791.63;4946891;28;45342;-63
2022/07/21 05:47:53;;;;;;;;;22.25;19.00;;;;;22.23;62.51;101795.88;4963869;28;45334;-63
2022/07/21 05:50:18;;;;;;;;;18.75;17.00;;;;;22.27;62.28;101804.47;4962523;28;45513;-63
2022/07/21 05:52:44;;;;;;;;;19.50;17.75;;;;;22.28;62.22;101798.13;4963537;28;45216;-63
2022/07/21 05:55:10;;;;;;;;;20.25;19.25;;;;;22.32;62.51;101798.69;4963668;28;45266;-64
2022/07/21 05:57:37;;;;;;;;;20.75;18.00;;;;;22.33;62.46;101803.91;4963316;28;45480;-63
2022/07/21 06:00:03;;;;;;;;;26.25;19.25;;;;;22.36;62.10;101800.13;4960645;28;45329;-63
2022/07/21 06:02:30;;;;;;;;;19.00;19.00;;;;;22.39;62.08;101807.88;4957249;28;45367;-64
2022/07/21 06:04:56;;;;;;;;;26.00;21.75;;;;;22.39;62.01;101802.50;4958608;28;45469;-63
2022/07/21 06:07:22;;;;;;;;;21.25;19.75;;;;;22.38;62.04;101807.03;4961511;28;45535;-63
2022/07/21 06:09:47;;;;;;;;;21.50;20.25;;;;;22.39;62.15;101808.72;4962634;28;45343;-63
2022/07/21 06:12:12;;;;;;;;;22.25;20.00;;;;;22.40;62.08;101807.72;4947787;28;45220;-44
2022/07/21 06:14:38;;;;;;;;;17.75;16.25;;;;;22.42;61.79;101805.75;4958817;28;45254;-45
2022/07/21 06:17:03;;;;;;;;;22.75;19.25;;;;;22.49;62.58;101814.09;4958963;28;45462;-45
2022/07/21 06:19:29;;;;;;;;;25.25;21.50;;;;;22.52;62.43;101816.50;4962809;28;45163;-43
2022/07/21 06:21:54;;;;;;;;;23.00;19.00;;;;;22.53;62.27;101813.66;4955677;28;46794;-43
2022/07/21 06:24:22;;;;;;;;;23.50;20.50;;;;;22.57;62.11;101816.91;4960870;28;45373;-45
2022/07/21 06:26:47;;;;;;;;;26.00;21.00;;;;;22.57;62.38;101816.91;4962199;28;45492;-44
2022/07/21 06:29:13;;;;;;;;;21.75;19.00;;;;;22.61;62.50;101820.16;4962984;28;45376;-44
2022/07/21 06:31:39;;;;;;;;;20.75;20.25;;;;;22.66;62.48;101817.88;4955149;28;46254;-44
2022/07/21 06:34:04;;;;;;;;;20.00;18.50;;;;;22.69;62.16;101822.97;4954609;28;45329;-44
2022/07/21 06:36:30;;;;;;;;;22.00;21.25;;;;;22.69;61.83;101818.47;4954030;28;45286;-44
2022/07/21 06:38:55;;;;;;;;;23.00;22.25;;;;;22.68;62.06;101821.28;4960096;28;45604;-45
2022/07/21 06:41:20;;;;;;;;;24.00;23.25;;;;;22.69;62.28;101822.97;4946764;28;45429;-44
2022/07/21 06:43:46;;;;;;;;;25.75;20.00;;;;;22.69;62.01;101823.84;4961977;28;45629;-44
2022/07/21 06:46:11;;;;;;;;;22.50;21.50;;;;;22.68;61.59;101824.81;4962390;28;45509;-47
2022/07/21 06:48:37;;;;;;;;;24.50;20.50;;;;;22.68;61.97;101824.81;4963005;28;45434;-46
2022/07/21 06:51:02;;;;;;;;;21.75;21.50;;;;;22.73;62.40;101819.00;4955264;28;46097;-48
2022/07/21 06:53:28;;;;;;;;;26.75;20.25;;;;;22.78;62.15;101828.34;4943605;28;45236;-44
2022/07/21 06:55:54;;;;;;;;;19.50;18.25;;;;;22.83;61.95;101818.03;4943532;28;45338;-47
2022/07/21 06:58:22;;;;;;;;;27.75;22.25;;;;;22.86;61.66;101824.13;4943430;28;45172;-45
2022/07/21 07:00:49;;;;;;;;;22.00;19.25;;;;;22.88;62.02;101817.59;4958111;28;46248;-43
2022/07/21 07:03:15;;;;;;;;;27.00;22.25;;;;;22.87;61.58;101828.50;4962613;28;45328;-43
2022/07/21 07:05:41;;;;;;;;;21.25;19.75;;;;;22.91;61.77;101828.06;4962357;28;45539;-45
2022/07/21 07:08:07;;;;;;;;;20.75;19.00;;;;;22.96;61.69;101831.16;4951254;28;45389;-44
2022/07/21 07:10:33;;;;;;;;;26.00;19.00;;;;;22.98;62.00;101839.06;4943179;28;46090;-43
2022/07/21 07:12:58;;;;;;;;;19.25;18.75;;;;;23.00;62.03;101839.78;4949781;28;45278;-46
2022/07/21 07:15:25;;;;;;;;;21.50;19.50;;;;;23.01;61.59;101842.31;4944428;28;45218;-44
2022/07/21 07:17:51;;;;;;;;;21.25;20.00;;;;;23.05;61.34;101842.88;4956602;28;45496;-43
2022/07/21 07:20:16;;;;;;;;;25.00;21.50;;;;;23.12;61.44;101839.47;4946235;28;45497;-44
2022/07/21 07:22:42;;;;;;;;;19.75;19.00;;;;;23.18;61.65;101846.09;4951234;28;45594;-47
2022/07/21 07:25:09;;;;;;;;;23.50;21.00;;;;;23.20;61.70;101852.16;4951250;28;45499;-45
2022/07/21 07:27:34;;;;;;;;;27.25;21.75;;;;;23.20;60.98;101849.47;4943177;28;45359;-43
2022/07/21 07:30:01;;;;;;;;;30.00;23.00;;;;;23.17;61.24;101847.09;4950058;28;45714;-43
2022/07/21 07:32:26;;;;;;;;;26.00;22.25;;;;;23.19;61.53;101846.94;4958709;28;45456;-43
2022/07/21 07:34:52;;;;;;;;;27.75;24.00;;;;;23.21;61.37;101847.63;4957731;28;45421;-44
2022/07/21 07:37:18;;;;;;;;;30.75;22.50;;;;;23.25;61.49;101843.69;4959979;28;45385;-45
2022/07/21 07:39:44;;;;;;;;;29.00;26.00;;;;;23.30;61.35;101844.06;4953391;28;46039;-43
2022/07/21 07:42:09;;;;;;;;;22.50;19.75;;;;;23.31;61.36;101853.84;4960014;28;45214;-46
2022/07/21 07:44:35;;;;;;;;;24.75;22.75;;;;;23.32;60.74;101850.16;4953500;28;45373;-44
2022/07/21 07:47:03;;;;;;;;;27.25;23.75;;;;;23.34;60.94;101850.84;4954817;28;45219;-46
2022/07/21 07:49:30;;;;;;;;;26.75;25.75;;;;;23.38;61.08;101854.94;4955501;28;46024;-46
2022/07/21 07:51:56;;;;;;;;;23.50;22.00;;;;;23.42;60.85;101858.19;4961041;28;45254;-42
2022/07/21 07:54:22;;;;;;;;;21.75;21.75;;;;;23.45;60.79;101863.25;4957134;28;45759;-44
2022/07/21 07:56:48;;;;;;;;;27.75;24.25;;;;;23.47;60.71;101864.00;4960638;28;45559;-43
2022/07/21 07:59:13;;;;;;;;;24.75;21.25;;;;;23.48;60.54;101858.47;4956563;28;45488;-48
2022/07/21 08:01:39;;;;;;;;;25.25;21.75;;;;;23.51;60.61;101860.84;4955900;28;45443;-45
2022/07/21 08:04:05;;;;;;;;;27.00;25.00;;;;;23.56;60.44;101863.94;4959872;28;45495;-46
2022/07/21 08:06:30;;;;;;;;;32.00;29.75;;;;;23.61;60.75;101871.59;4956921;28;45372;-47
2022/07/21 08:08:56;;;;;;;;;22.50;20.25;;;;;23.61;60.72;101864.34;4957689;28;45664;-44
2022/07/21 08:11:21;;;;;;;;;31.25;25.50;;;;;23.64;60.62;101865.94;4959534;28;45350;-43
2022/07/21 08:13:47;;;;;;;;;28.25;25.00;;;;;23.64;60.59;101869.47;4952947;28;45284;-45
2022/07/21 08:16:15;;;;;;;;;32.50;26.25;;;;;23.67;60.58;101868.31;4960439;28;45415;-44
2022/07/21 08:18:44;;;;;;;;;30.50;24.25;;;;;23.68;60.70;101865.47;4957146;28;45449;-42
2022/07/21 08:21:10;;;;;;;;;28.50;25.50;;;;;23.76;59.77;101875.47;4956102;28;45392;-47
2022/07/21 08:23:36;;;;;;;;;35.00;27.50;;;;;23.80;60.29;101865.28;4960646;28;45299;-44
2022/07/21 08:26:03;;;;;;;;;27.75;27.25;;;;;23.83;60.18;101873.03;4960752;28;45231;-43
2022/07/21 08:28:28;;;;;;;;;30.50;27.50;;;;;23.84;59.62;101872.88;4957146;28;45438;-44
2022/07/21 08:30:54;;;;;;;;;31.75;27.50;;;;;23.89;60.13;101873.28;4956162;28;45234;-43
2022/07/21 08:33:20;;;;;;;;;31.00;27.75;;;;;23.95;59.48;101869.16;4956573;28;45407;-44
2022/07/21 08:35:45;;;;;;;;;33.00;29.00;;;;;24.02;59.57;101881.03;4959613;28;45517;-46
2022/07/21 08:38:11;;;;;;;;;28.50;25.00;;;;;24.05;59.83;101879.88;4956861;28;45384;-44
2022/07/21 08:40:44;;;;;;;;;32.00;28.75;;;;;24.03;59.40;101871.94;4960132;28;46459;-44
2022/07/21 08:43:12;;;;;;;;;26.00;23.25;;;;;24.06;59.00;101879.72;4954941;28;45270;-46
2022/07/21 08:45:39;;;;;;;;;27.00;25.00;;;;;24.08;59.56;101875.00;4953345;28;45371;-45
2022/07/21 08:48:05;;;;;;;;;32.00;26.75;;;;;24.11;59.13;101874.72;4956959;28;45359;-45
2022/07/21 08:50:37;;;;;;;;;32.25;28.00;;;;;24.16;59.15;101880.47;4956560;28;45243;-45
2022/07/21 08:53:03;;;;;;;;;29.75;28.25;;;;;24.19;59.35;101877.50;4955330;28;45520;-47
2022/07/21 08:55:34;;;;;;;;;28.00;26.00;;;;;24.23;58.66;101883.41;4959800;28;45423;-46
2022/07/21 08:58:01;;;;;;;;;35.00;27.25;;;;;24.23;58.66;101875.34;4953666;28;45337;-46
2022/07/21 09:00:27;;;;;;;;;33.00;30.00;;;;;24.24;58.42;101880.56;4957898;28;45455;-46
2022/07/21 09:03:16;;;;;;;;;31.50;26.25;;;;;24.27;58.51;101879.44;4960120;28;45309;-43
2022/07/21 09:05:57;;;;;;;;;30.00;27.00;;;;;24.31;58.81;101874.59;4960442;28;45491;-42
2022/07/21 09:08:35;;;;;;;;;35.00;30.25;;;;;24.36;58.70;101878.56;4963610;28;46253;-47
2022/07/21 09:11:30;;;;;;;;;37.00;30.00;;;;;24.44;58.11;101875.94;4956725;28;45461;-44
2022/07/21 09:14:11;;;;;;;;;20.75;20.00;;;;;24.55;58.03;101879.38;4956931;28;45444;-46
2022/07/21 09:16:41;;;;;;;;;30.50;27.75;;;;;24.60;57.85;101880.63;4960747;28;45455;-43
2022/07/21 09:19:14;;;;;;;;;28.75;25.75;;;;;24.63;57.90;101880.31;4958104;28;45257;-45
2022/07/21 09:21:40;;;;;;;;;28.50;24.50;;;;;24.63;57.58;101874.91;4960463;28;45471;-46
2022/07/21 09:24:29;;;;;;;;;29.75;26.50;;;;;24.61;57.36;101879.63;4956725;28;45444;-44
2022/07/21 09:27:17;;;;;;;;;26.00;24.75;;;;;24.61;57.30;101876.94;4957642;28;45639;-48
2022/07/21 09:29:46;;;;;;;;;26.50;23.50;;;;;24.63;57.64;101879.47;4960719;28;46154;-50
2022/07/21 09:32:12;;;;;;;;;30.75;27.25;;;;;24.66;57.25;101873.78;4959859;28;45310;-49
2022/07/21 09:34:38;;;;;;;;;25.25;24.00;;;;;24.67;57.09;101875.47;4956415;28;45642;-50
2022/07/21 09:37:06;;;;;;;;;26.25;25.25;;;;;24.67;57.47;101887.09;4960446;28;45563;-46
2022/07/21 09:39:47;;;;;;;;;27.75;25.50;;;;;24.67;57.59;101878.16;4959279;28;45497;-47
2022/07/21 09:42:15;;;;;;;;;30.75;25.75;;;;;24.70;57.74;101877.84;4959059;28;45612;-49
2022/07/21 09:44:47;;;;;;;;;23.25;21.75;;;;;24.73;57.55;101891.03;4958960;28;45370;-50
2022/07/21 09:47:15;;;;;;;;;29.50;24.00;;;;;24.74;56.97;101882.78;4959683;28;45669;-49
2022/07/21 09:49:42;;;;;;;;;27.25;20.25;;;;;24.78;57.82;101889.53;4959115;28;45355;-46
2022/07/21 09:52:24;;;;;;;;;21.00;20.50;;;;;24.84;57.45;101887.22;4962924;28;45712;-44
2022/07/21 09:54:55;;;;;;;;;26.25;22.50;;;;;24.91;57.56;101883.75;4957261;28;45461;-45
2022/07/21 09:57:22;;;;;;;;;26.25;24.00;;;;;25.19;57.54;101884.47;4955469;28;45243;-47
2022/07/21 09:59:49;;;;;;;;;26.25;23.50;;;;;25.43;57.03;101875.69;4960885;28;48144;-47
2022/07/21 10:02:18;;;;;;;;;24.00;21.75;;;;;25.57;57.34;101877.78;4956559;28;45447;-46
2022/07/21 10:04:48;;;;;;;;;24.75;24.00;;;;;25.76;56.78;101871.34;4961022;28;45919;-45
2022/07/21 10:07:15;;;;;;;;;27.75;24.50;;;;;25.81;56.30;101871.69;4958142;28;45417;-45
2022/07/21 10:09:42;;;;;;;;;27.75;24.00;;;;;25.81;55.93;101877.09;4957184;28;45784;-46
2022/07/21 10:12:08;;;;;;;;;25.00;21.75;;;;;25.96;56.39;101873.75;4962090;28;45345;-48
2022/07/21 10:14:35;;;;;;;;;23.00;21.25;;;;;26.10;55.86;101867.72;4958933;28;45321;-49
2022/07/21 10:17:00;;;;;;;;;19.25;17.75;;;;;26.20;55.50;101873.81;4959182;28;45630;-46
2022/07/21 10:19:36;;;;;;;;;25.75;23.00;;;;;26.31;55.26;101867.28;4961456;28;45312;-44
2022/07/21 10:22:08;;;;;;;;;23.75;22.00;;;;;26.31;55.00;101873.53;4956105;28;45373;-71
2022/07/21 10:24:34;;;;;;;;;64.75;51.25;;;;;26.17;54.43;101866.06;4956743;28;45466;-74
2022/07/21 10:27:02;;;;;;;;;25.50;21.50;;;;;26.06;54.34;101869.06;4959154;28;45344;-72
2022/07/21 10:29:52;;;;;;;;;23.50;22.00;;;;;26.00;54.22;101880.53;4960885;28;46498;-72
2022/07/21 10:32:24;;;;;;;;;21.00;19.75;;;;;26.01;54.36;101883.06;4960249;28;45274;-72
2022/07/21 10:34:50;;;;;;;;;25.75;24.75;;;;;26.02;54.26;101875.81;4957217;28;45517;-68
2022/07/21 10:37:51;;;;;;;;;20.75;20.00;;;;;26.09;54.39;101875.00;4961823;28;45596;-70
2022/07/21 10:40:19;;;;;;;;;21.25;20.50;;;;;26.13;53.95;101876.34;4880920;29;45521;-72
2022/07/21 10:43:05;;;;;;;;;21.25;18.75;;;;;26.20;53.81;101870.28;4946412;28;45326;-68
2022/07/21 10:45:42;;;;;;;;;21.25;18.50;;;;;26.29;53.69;101877.38;4951399;28;45431;-69
2022/07/21 10:48:37;;;;;;;;;18.75;17.75;;;;;26.29;54.15;101875.53;4954862;28;45243;-69
2022/07/21 10:51:07;;;;;;;;;28.00;24.75;;;;;26.35;53.75;101872.16;4958011;28;45377;-68
2022/07/21 10:53:32;;;;;;;;;20.50;20.50;;;;;26.44;53.30;101873.06;4962031;28;45404;-67
2022/07/21 10:55:58;;;;;;;;;23.00;21.25;;;;;26.49;53.34;101873.41;4954149;28;45429;-69
2022/07/21 10:58:29;;;;;;;;;16.75;14.25;;;;;26.56;53.30;101871.72;4960578;28;45307;-69
2022/07/21 11:00:57;;;;;;;;;18.25;18.00;;;;;26.64;52.79;101873.59;4950863;28;45433;-72
2022/07/21 11:03:33;;;;;;;;;26.50;23.25;;;;;26.71;52.92;101869.19;4961787;28;45508;-71
2022/07/21 11:06:18;;;;;;;;;21.00;20.00;;;;;26.67;52.53;101870.53;4956339;28;45451;-71
2022/07/21 11:08:51;;;;;;;;;20.50;19.25;;;;;26.69;52.85;101876.59;4959113;28;45335;-72
2022/07/21 11:11:22;;;;;;;;;20.50;17.25;;;;;26.78;52.45;101870.22;4959219;28;45445;-68
2022/07/21 11:14:07;;;;;;;;;17.25;17.00;;;;;26.81;52.19;101874.44;4958541;28;45655;-70
2022/07/21 11:16:46;;;;;;;;;24.00;21.00;;;;;26.82;52.03;101868.84;4956956;28;45328;-68
2022/07/21 11:19:30;;;;;;;;;26.50;19.75;;;;;26.75;52.20;101869.69;4956551;28;45674;-70